Time;durP1;ratioP1;P1;durP2;ratioP2;P2;SDS_P1;SDS_P2;PMS_P1;PMS_P2;Temp;Humidity;BMP_temperature;BMP_pressure;BME280_temperature;BME280_humidity;BME280_pressure;Samples;Min_cycle;Max_cycle;Signal;HPM_P1;HPM_P2
2021/12/20 00:02:03;;;;;;;1.10;1.10;;;;;;;3.95;61.66;99792.03;101176;1318;96524;-76
2021/12/20 00:04:31;;;;;;;1.10;1.10;;;;;;;3.89;61.79;99792.97;100896;1319;138087;-75
2021/12/20 00:06:59;;;;;;;1.10;1.10;;;;;;;3.91;61.52;99791.55;101134;1317;109774;-77
2021/12/20 00:09:27;;;;;;;1.00;1.00;;;;;;;3.91;61.47;99791.38;101223;1315;95285;-76
2021/12/20 00:11:54;;;;;;;1.20;1.20;;;;;;;3.90;61.74;99788.57;101097;1318;137461;-77
2021/12/20 00:14:22;;;;;;;1.10;1.10;;;;;;;3.89;61.94;99790.49;101204;1317;108865;-77
2021/12/20 00:16:50;;;;;;;1.10;1.10;;;;;;;3.89;61.75;99793.14;101064;1318;138117;-77
2021/12/20 00:19:18;;;;;;;1.00;1.00;;;;;;;3.90;61.42;99791.36;101169;1317;95240;-75
2021/12/20 00:21:46;;;;;;;1.00;1.00;;;;;;;3.90;61.38;99789.96;101079;1318;139050;-77
2021/12/20 00:24:14;;;;;;;1.10;1.10;;;;;;;3.90;61.75;99786.63;101193;1317;107896;-77
2021/12/20 00:26:41;;;;;;;1.10;1.10;;;;;;;3.91;61.54;99790.66;101145;1320;109451;-76
2021/12/20 00:29:09;;;;;;;1.10;1.10;;;;;;;3.83;61.43;99792.85;101030;1320;137661;-76
2021/12/20 00:31:37;;;;;;;1.30;1.30;;;;;;;3.84;61.74;99787.21;101176;1317;96066;-76
2021/12/20 00:34:05;;;;;;;1.10;1.10;;;;;;;3.87;61.33;99790.70;101068;1318;138710;-76
2021/12/20 00:36:33;;;;;;;1.10;1.10;;;;;;;3.83;61.59;99795.11;101226;1317;109715;-77
2021/12/20 00:41:48;;;;;;;1.20;1.20;;;;;;;3.79;61.57;99804.29;101121;1317;139095;-76
2021/12/20 00:44:16;;;;;;;1.10;1.10;;;;;;;3.79;61.42;99803.05;101200;1317;109089;-76
2021/12/20 00:46:54;;;;;;;1.20;1.20;;;;;;;3.76;61.49;99802.20;101115;1320;138845;-76
2021/12/20 00:49:21;;;;;;;1.20;1.20;;;;;;;3.76;61.43;99803.44;101226;1317;95579;-76
2021/12/20 00:51:49;;;;;;;1.10;1.10;;;;;;;3.71;61.19;99800.14;101163;1318;138075;-75
2021/12/20 00:54:17;;;;;;;1.10;1.10;;;;;;;3.61;61.41;99796.36;101055;1320;108800;-76
2021/12/20 00:56:45;;;;;;;1.20;1.20;;;;;;;3.57;61.49;99792.52;101048;1317;109805;-77
2021/12/20 00:59:13;;;;;;;1.10;1.10;;;;;;;3.54;61.66;99792.73;100969;1320;138115;-76
2021/12/20 01:01:41;;;;;;;1.20;1.20;;;;;;;3.56;61.77;99791.66;101189;1318;95887;-77
2021/12/20 01:04:09;;;;;;;1.10;1.10;;;;;;;3.52;61.57;99790.10;101075;1318;137602;-76
2021/12/20 01:06:37;;;;;;;1.20;1.20;;;;;;;3.45;61.54;99793.14;101201;1317;108939;-77
2021/12/20 01:09:06;;;;;;;1.30;1.30;;;;;;;3.38;61.85;99793.02;101215;1318;95284;-76
2021/12/20 01:11:38;;;;;;;1.20;1.20;;;;;;;3.39;61.99;99791.25;101141;1318;139322;-75
2021/12/20 01:14:06;;;;;;;1.10;1.10;;;;;;;3.40;62.17;99798.79;101225;1318;108815;-76
2021/12/20 01:16:34;;;;;;;1.20;1.20;;;;;;;3.41;62.13;99798.78;101133;1318;140096;-77
2021/12/20 01:19:02;;;;;;;1.20;1.20;;;;;;;3.39;61.90;99797.05;101142;1317;95177;-75
2021/12/20 01:21:31;;;;;;;1.20;1.20;;;;;;;3.39;62.12;99800.37;101264;1317;95803;-76
2021/12/20 01:23:58;;;;;;;1.10;1.10;;;;;;;3.44;61.86;99800.16;100948;1318;139035;-76
2021/12/20 01:26:26;;;;;;;1.20;1.20;;;;;;;3.48;61.86;99796.97;101123;1319;109304;-75
2021/12/20 01:28:54;;;;;;;1.20;1.20;;;;;;;3.46;61.76;99793.48;101107;1317;137862;-75
2021/12/20 01:31:22;;;;;;;1.20;1.20;;;;;;;3.46;62.06;99799.62;101194;1318;95289;-76
2021/12/20 01:33:50;;;;;;;1.20;1.20;;;;;;;3.49;62.10;99804.34;101109;1317;138548;-75
2021/12/20 01:36:18;;;;;;;1.20;1.20;;;;;;;3.53;62.17;99804.66;101190;1318;110181;-77
2021/12/20 01:38:46;;;;;;;1.10;1.10;;;;;;;3.57;62.05;99798.14;101321;1317;95549;-75
2021/12/20 01:41:14;;;;;;;1.20;1.20;;;;;;;3.61;62.09;99797.23;101088;1318;138133;-76
2021/12/20 01:43:42;;;;;;;1.20;1.20;;;;;;;3.61;61.96;99797.23;101333;1317;107541;-77
2021/12/20 01:46:10;;;;;;;1.20;1.20;;;;;;;3.54;62.21;99796.40;101159;1317;138339;-76
2021/12/20 01:48:40;;;;;;;1.10;1.10;;;;;;;3.50;62.38;99796.42;101243;1318;95290;-75
2021/12/20 01:53:38;;;;;;;1.10;1.10;;;;;;;3.58;62.71;99793.39;101065;1320;138339;-76
2021/12/20 01:56:07;;;;;;;1.20;1.20;;;;;;;3.62;62.50;99796.16;101269;1317;108771;-76
2021/12/20 01:58:36;;;;;;;1.20;1.20;;;;;;;3.54;62.54;99796.94;101138;1317;138704;-76
2021/12/20 02:03:40;;;;;;;1.00;1.00;;;;;;;3.47;62.64;99797.69;101232;1318;108869;-76
2021/12/20 02:06:19;;;;;;;1.10;1.10;;;;;;;3.47;62.76;99793.82;101312;1317;138140;-77
2021/12/20 02:08:47;;;;;;;1.10;1.10;;;;;;;3.42;62.82;99798.42;101150;1317;95338;-75
2021/12/20 02:11:18;;;;;;;1.20;1.20;;;;;;;3.38;62.96;99797.22;100965;1319;138572;-77
2021/12/20 02:13:47;;;;;;;1.20;1.20;;;;;;;3.41;62.98;99798.77;101403;1318;108825;-77
2021/12/20 02:16:15;;;;;;;1.10;1.10;;;;;;;3.43;63.00;99804.73;100998;1318;139345;-77
2021/12/20 02:18:43;;;;;;;1.10;1.10;;;;;;;3.38;62.81;99801.77;101137;1320;95276;-76
2021/12/20 02:21:11;;;;;;;1.10;1.10;;;;;;;3.29;63.21;99801.66;101227;1317;95698;-76
2021/12/20 02:23:39;;;;;;;1.20;1.20;;;;;;;3.29;63.65;99796.05;101138;1318;138314;-76
2021/12/20 02:26:11;;;;;;;1.20;1.20;;;;;;;3.34;63.47;99796.90;101183;1318;108565;-77
2021/12/20 02:28:43;;;;;;;1.00;1.00;;;;;;;3.34;63.14;99799.17;100825;1321;138461;-76
2021/12/20 02:39:20;;;;;;;1.10;1.10;;;;;;;3.41;63.73;99794.23;101185;1320;96545;-76
2021/12/20 02:41:48;;;;;;;1.20;1.20;;;;;;;3.42;63.75;99798.77;100978;1320;137618;-76
2021/12/20 02:44:18;;;;;;;1.30;1.30;;;;;;;3.41;63.70;99792.11;101196;1317;108584;-75
2021/12/20 02:49:19;;;;;;;1.20;1.20;;;;;;;3.48;63.65;99795.39;101355;1317;95377;-76
2021/12/20 02:51:50;;;;;;;1.00;1.00;;;;;;;3.48;63.40;99791.89;101229;1318;95286;-76
2021/12/20 02:54:20;;;;;;;1.20;1.20;;;;;;;3.43;63.43;99791.74;101124;1318;137675;-76
2021/12/20 02:56:49;;;;;;;1.10;1.10;;;;;;;3.46;63.73;99792.07;101286;1317;109946;-77
2021/12/20 02:59:18;;;;;;;1.10;1.10;;;;;;;3.47;63.50;99789.27;101103;1317;138577;-75
2021/12/20 03:01:52;;;;;;;1.10;1.10;;;;;;;3.43;63.48;99782.09;101083;1317;95535;-74
2021/12/20 03:04:21;;;;;;;1.10;1.10;;;;;;;3.42;63.78;99781.23;101170;1314;138173;-76
2021/12/20 03:07:01;;;;;;;1.10;1.10;;;;;;;3.41;64.16;99777.02;101192;1317;109878;-76
2021/12/20 03:09:33;;;;;;;1.00;1.00;;;;;;;3.36;64.02;99772.13;101214;1318;95280;-76
2021/12/20 03:12:03;;;;;;;1.10;1.10;;;;;;;3.38;64.33;99765.46;101130;1318;138534;-76
2021/12/20 03:14:44;;;;;;;1.00;1.00;;;;;;;3.39;64.04;99765.63;101305;1321;109365;-76
2021/12/20 03:17:13;;;;;;;1.10;1.10;;;;;;;3.34;64.14;99765.67;101086;1319;137669;-76
2021/12/20 03:19:40;;;;;;;1.10;1.10;;;;;;;3.30;64.38;99761.13;101243;1318;95353;-76
2021/12/20 03:22:10;;;;;;;1.00;1.00;;;;;;;3.28;64.61;99759.38;101235;1317;95261;-76
2021/12/20 03:24:38;;;;;;;1.00;1.00;;;;;;;3.29;64.80;99757.63;100991;1320;137807;-76
2021/12/20 03:27:06;;;;;;;1.10;1.10;;;;;;;3.28;64.58;99765.89;101164;1321;108723;-76
2021/12/20 03:29:34;;;;;;;1.20;1.20;;;;;;;3.22;64.81;99765.73;101048;1318;138636;-77
2021/12/20 03:32:02;;;;;;;1.40;1.40;;;;;;;3.25;64.81;99768.53;101084;1321;95440;-76
2021/12/20 03:34:30;;;;;;;1.10;1.10;;;;;;;3.29;64.96;99763.59;101029;1320;138774;-76
2021/12/20 03:36:58;;;;;;;1.00;1.00;;;;;;;3.31;65.04;99762.17;101183;1318;109634;-75
2021/12/20 03:39:26;;;;;;;1.20;1.20;;;;;;;3.28;64.91;99762.89;101231;1317;95357;-76
2021/12/20 03:41:54;;;;;;;1.10;1.10;;;;;;;3.24;65.01;99765.73;101113;1317;138624;-76
2021/12/20 03:44:22;;;;;;;1.10;1.10;;;;;;;3.23;65.29;99765.91;101169;1317;108797;-77
2021/12/20 03:46:49;;;;;;;1.10;1.10;;;;;;;3.17;65.21;99769.45;101006;1319;137964;-76
2021/12/20 03:49:17;;;;;;;1.10;1.10;;;;;;;3.23;65.33;99772.05;101193;1318;95709;-75
2021/12/20 03:51:45;;;;;;;1.00;1.00;;;;;;;3.23;65.42;99773.45;101301;1318;95729;-76
2021/12/20 03:54:13;;;;;;;1.10;1.10;;;;;;;3.21;65.34;99774.70;101107;1318;138377;-76
2021/12/20 03:56:41;;;;;;;1.00;1.00;;;;;;;3.16;65.47;99772.45;101204;1317;110078;-77
2021/12/20 03:59:09;;;;;;;1.10;1.10;;;;;;;3.15;65.69;99764.73;101074;1317;138022;-76
2021/12/20 04:01:37;;;;;;;1.10;1.10;;;;;;;3.14;65.82;99766.14;101204;1318;95912;-77
2021/12/20 04:04:05;;;;;;;1.00;1.00;;;;;;;3.20;65.88;99763.30;101189;1318;108986;-76
2021/12/20 04:06:35;;;;;;;1.10;1.10;;;;;;;3.29;65.89;99769.73;101020;1321;137709;-76
2021/12/20 04:09:04;;;;;;;1.10;1.10;;;;;;;3.32;65.92;99771.99;101218;1319;95265;-74
2021/12/20 04:11:32;;;;;;;1.10;1.10;;;;;;;3.29;66.13;99769.73;101149;1318;137552;-76
2021/12/20 04:14:01;;;;;;;1.10;1.10;;;;;;;3.25;66.58;99769.05;101198;1318;109336;-76
2021/12/20 04:16:29;;;;;;;1.10;1.10;;;;;;;3.27;66.50;99770.45;101099;1317;138773;-76
2021/12/20 04:18:57;;;;;;;1.10;1.10;;;;;;;3.29;66.72;99771.48;101170;1318;96896;-75
2021/12/20 04:21:25;;;;;;;1.00;1.00;;;;;;;3.31;66.79;99770.41;101197;1317;95269;-76
2021/12/20 04:23:53;;;;;;;1.10;1.10;;;;;;;3.37;66.76;99772.84;101028;1321;137845;-76
2021/12/20 04:26:21;;;;;;;1.00;1.00;;;;;;;3.37;66.76;99774.77;101199;1320;109554;-75
2021/12/20 04:28:49;;;;;;;1.00;1.00;;;;;;;3.42;66.67;99778.77;101056;1318;138357;-76
2021/12/20 04:31:17;;;;;;;1.00;1.00;;;;;;;3.40;66.56;99779.14;101092;1321;95374;-74
2021/12/20 04:33:45;;;;;;;1.00;1.00;;;;;;;3.37;66.69;99778.63;101116;1318;107291;-75
2021/12/20 04:36:13;;;;;;;1.00;1.00;;;;;;;3.38;66.61;99771.77;101145;1317;138877;-76
2021/12/20 04:38:41;;;;;;;1.00;1.00;;;;;;;3.40;66.38;99768.79;101159;1320;97129;-76
2021/12/20 04:41:09;;;;;;;1.00;1.00;;;;;;;3.38;66.86;99767.58;101184;1317;137994;-75
2021/12/20 04:43:37;;;;;;;1.10;1.10;;;;;;;3.35;67.12;99764.41;101143;1318;108081;-77
2021/12/20 04:46:05;;;;;;;1.10;1.10;;;;;;;3.40;67.09;99773.16;101204;1317;110033;-75
2021/12/20 04:48:33;;;;;;;1.00;1.00;;;;;;;3.44;66.93;99771.38;101121;1317;138732;-77
2021/12/20 04:51:01;;;;;;;1.00;1.00;;;;;;;3.42;67.21;99766.84;101225;1318;95593;-75
2021/12/20 04:53:29;;;;;;;1.00;1.00;;;;;;;3.38;67.28;99772.13;101047;1315;137545;-76
2021/12/20 04:55:57;;;;;;;1.00;1.00;;;;;;;3.38;67.39;99773.88;101063;1321;108778;-77
2021/12/20 04:58:24;;;;;;;1.00;1.00;;;;;;;3.42;67.50;99777.36;101143;1318;138246;-77
2021/12/20 05:00:52;;;;;;;1.00;1.00;;;;;;;3.42;67.67;99783.68;101101;1321;95675;-76
2021/12/20 05:03:20;;;;;;;1.00;1.00;;;;;;;3.37;68.50;99784.95;101187;1317;107902;-77
2021/12/20 05:05:48;;;;;;;1.00;1.00;;;;;;;3.44;68.53;99784.20;101168;1318;138200;-75
2021/12/20 05:08:16;;;;;;;1.00;1.00;;;;;;;3.49;68.57;99783.27;101202;1318;95230;-77
2021/12/20 05:10:44;;;;;;;1.00;1.00;;;;;;;3.46;68.84;99773.82;101099;1318;137552;-77
2021/12/20 05:13:13;;;;;;;1.20;1.20;;;;;;;3.41;68.91;99786.14;101159;1317;107901;-79
2021/12/20 05:15:45;;;;;;;0.90;0.90;;;;;;;3.42;68.92;99793.52;101261;1317;110150;-77
2021/12/20 05:18:13;;;;;;;0.90;0.90;;;;;;;3.45;68.58;99796.46;101143;1317;138461;-77
2021/12/20 05:20:41;;;;;;;1.10;1.10;;;;;;;3.49;68.85;99805.39;101228;1317;95707;-76
2021/12/20 05:23:09;;;;;;;1.00;1.00;;;;;;;3.45;69.02;99803.14;100957;1324;137436;-76
2021/12/20 05:25:37;;;;;;;1.10;1.10;;;;;;;3.44;69.13;99802.10;101182;1318;109773;-77
2021/12/20 05:28:06;;;;;;;1.20;1.20;;;;;;;3.49;69.35;99805.92;101230;1318;96750;-76
2021/12/20 05:30:34;;;;;;;1.00;1.00;;;;;;;3.55;69.18;99808.34;101076;1318;138578;-76
2021/12/20 05:33:02;;;;;;;0.90;0.90;;;;;;;3.58;69.19;99807.44;101232;1317;108873;-77
2021/12/20 05:35:31;;;;;;;1.00;1.00;;;;;;;3.56;69.31;99808.67;101054;1318;137895;-75
2021/12/20 05:37:59;;;;;;;1.10;1.10;;;;;;;3.55;69.40;99812.73;101227;1317;95758;-77
2021/12/20 05:40:27;;;;;;;1.00;1.00;;;;;;;3.59;69.34;99820.07;101054;1317;138443;-76
2021/12/20 05:42:55;;;;;;;1.10;1.10;;;;;;;3.66;69.33;99822.99;101136;1324;106389;-77
2021/12/20 05:45:23;;;;;;;1.00;1.00;;;;;;;3.69;69.30;99823.50;101016;1321;108888;-77
2021/12/20 05:47:51;;;;;;;1.00;1.00;;;;;;;3.69;69.34;99826.66;101199;1318;138050;-75
2021/12/20 05:50:21;;;;;;;1.00;1.00;;;;;;;3.69;69.45;99829.98;101162;1318;95271;-76
2021/12/20 05:52:49;;;;;;;0.90;0.90;;;;;;;3.70;69.68;99834.20;101089;1318;138012;-77
2021/12/20 05:55:17;;;;;;;1.10;1.10;;;;;;;3.69;69.66;99835.80;101188;1318;109830;-76
2021/12/20 05:57:46;;;;;;;1.00;1.00;;;;;;;3.68;69.75;99837.03;101207;1318;95844;-76
2021/12/20 06:00:18;;;;;;;1.10;1.10;;;;;;;3.71;69.76;99843.85;100908;1319;138535;-77
2021/12/20 06:02:48;;;;;;;1.00;1.00;;;;;;;3.73;69.74;99842.62;101173;1321;107887;-76
2021/12/20 06:05:18;;;;;;;1.10;1.10;;;;;;;3.72;69.72;99844.20;101208;1316;137898;-76
2021/12/20 06:07:46;;;;;;;1.00;1.00;;;;;;;3.71;69.84;99848.59;101070;1320;95375;-76
2021/12/20 06:10:16;;;;;;;1.00;1.00;;;;;;;3.72;69.81;99853.34;101236;1318;95823;-77
2021/12/20 06:12:44;;;;;;;1.00;1.00;;;;;;;3.76;69.80;99860.33;100882;1321;138084;-77
2021/12/20 06:15:13;;;;;;;1.00;1.00;;;;;;;3.78;69.90;99864.52;101224;1317;110098;-77
2021/12/20 06:17:41;;;;;;;1.00;1.00;;;;;;;3.76;70.19;99871.04;101166;1318;137644;-77
2021/12/20 06:20:11;;;;;;;1.00;1.00;;;;;;;3.70;69.96;99876.16;101079;1321;96487;-76
2021/12/20 06:22:40;;;;;;;1.00;1.00;;;;;;;3.67;70.35;99881.80;101203;1319;138273;-77
2021/12/20 06:25:09;;;;;;;0.90;0.90;;;;;;;3.68;69.96;99877.58;101079;1320;109773;-77
2021/12/20 06:27:37;;;;;;;0.90;0.90;;;;;;;3.65;69.84;99880.40;101104;1321;95209;-77
2021/12/20 06:30:09;;;;;;;1.10;1.10;;;;;;;3.63;69.86;99885.34;101130;1319;138376;-76
2021/12/20 06:32:39;;;;;;;1.10;1.10;;;;;;;3.58;70.06;99893.27;101100;1321;108772;-76
2021/12/20 06:35:25;;;;;;;1.00;1.00;;;;;;;3.55;70.27;99896.80;101168;1319;138821;-77
2021/12/20 06:38:00;;;;;;;1.10;1.10;;;;;;;3.54;70.20;99904.35;101228;1318;95405;-76
2021/12/20 06:40:30;;;;;;;1.10;1.10;;;;;;;3.51;70.36;99904.36;101207;1319;138415;-76
2021/12/20 06:42:58;;;;;;;1.00;1.00;;;;;;;3.56;70.37;99906.64;101170;1318;111145;-77
2021/12/20 06:45:30;;;;;;;1.00;1.00;;;;;;;3.64;70.21;99911.84;101235;1318;109787;-77
2021/12/20 06:47:58;;;;;;;0.90;0.90;;;;;;;3.74;69.89;99915.81;101142;1318;138147;-75
2021/12/20 06:50:26;;;;;;;1.00;1.00;;;;;;;3.71;69.80;99916.71;101267;1319;95600;-76
2021/12/20 06:52:54;;;;;;;0.90;0.90;;;;;;;3.68;69.94;99917.95;101049;1320;138069;-75
2021/12/20 06:55:22;;;;;;;1.00;1.00;;;;;;;3.70;69.68;99920.58;101150;1321;110046;-77
2021/12/20 06:57:51;;;;;;;0.90;0.90;;;;;;;3.73;69.41;99920.55;101332;1318;95723;-78
2021/12/20 07:00:19;;;;;;;1.00;1.00;;;;;;;3.70;69.10;99918.13;100981;1325;137744;-77
2021/12/20 07:02:46;;;;;;;1.00;1.00;;;;;;;3.70;69.11;99915.14;101067;1322;108792;-75
2021/12/20 07:05:15;;;;;;;1.00;1.00;;;;;;;3.69;69.09;99916.38;101041;1318;138276;-76
2021/12/20 07:07:43;;;;;;;0.90;0.90;;;;;;;3.69;68.94;99925.68;101161;1322;95797;-77
2021/12/20 07:10:11;;;;;;;1.00;1.00;;;;;;;3.72;68.99;99927.06;101258;1320;95407;-77
2021/12/20 07:12:39;;;;;;;1.00;1.00;;;;;;;3.73;68.93;99926.17;101161;1317;137549;-77
2021/12/20 07:15:12;;;;;;;1.00;1.00;;;;;;;3.74;68.92;99929.86;101207;1321;108799;-77
2021/12/20 07:17:41;;;;;;;1.00;1.00;;;;;;;3.75;68.55;99934.08;101352;1318;138701;-77
2021/12/20 07:20:10;;;;;;;1.00;1.00;;;;;;;3.74;68.62;99939.70;101056;1320;95523;-77
2021/12/20 07:22:38;;;;;;;1.00;1.00;;;;;;;3.70;68.87;99940.06;101140;1319;137790;-78
2021/12/20 07:25:07;;;;;;;1.00;1.00;;;;;;;3.73;68.86;99941.98;101422;1320;108896;-77
2021/12/20 07:27:35;;;;;;;0.90;0.90;;;;;;;3.80;68.76;99942.29;101373;1317;96470;-76
2021/12/20 07:30:04;;;;;;;1.00;1.00;;;;;;;3.84;68.60;99947.02;101286;1318;137541;-76
2021/12/20 07:32:32;;;;;;;1.10;1.10;;;;;;;3.88;68.50;99949.44;101315;1317;108582;-77
2021/12/20 07:35:00;;;;;;;1.00;1.00;;;;;;;3.86;68.52;99952.45;101186;1319;138514;-77
2021/12/20 07:37:28;;;;;;;0.90;0.90;;;;;;;3.86;68.65;99953.33;101216;1320;97703;-76
2021/12/20 07:39:56;;;;;;;1.00;1.00;;;;;;;3.83;68.49;99954.73;101380;1322;95364;-76
2021/12/20 07:42:24;;;;;;;1.00;1.00;;;;;;;3.81;68.54;99960.20;101261;1319;137439;-75
2021/12/20 07:45:00;;;;;;;1.00;1.00;;;;;;;3.77;68.61;99962.34;101240;1324;109733;-76
2021/12/20 07:47:46;;;;;;;0.90;0.90;;;;;;;3.81;68.58;99964.23;101268;1318;138474;-76
2021/12/20 07:50:18;;;;;;;1.00;1.00;;;;;;;3.81;68.44;99965.81;101289;1320;95346;-75
2021/12/20 07:52:47;;;;;;;1.00;1.00;;;;;;;3.80;68.41;99964.41;101223;1319;138026;-76
2021/12/20 07:55:16;;;;;;;1.00;1.00;;;;;;;3.88;68.51;99964.55;101270;1318;108458;-77
2021/12/20 07:57:44;;;;;;;0.90;0.90;;;;;;;3.92;68.10;99964.52;101455;1316;95162;-77
2021/12/20 08:00:13;;;;;;;0.90;0.90;;;;;;;4.00;68.36;99963.95;101214;1320;137899;-77
2021/12/20 08:02:42;;;;;;;1.00;1.00;;;;;;;4.14;68.06;99965.09;101695;1318;109420;-77
2021/12/20 08:05:13;;;;;;;1.00;1.00;;;;;;;4.20;67.64;99963.45;101211;1315;137557;-76
2021/12/20 08:07:42;;;;;;;0.90;0.90;;;;;;;4.23;67.13;99965.19;101288;1318;95836;-76
2021/12/20 08:10:10;;;;;;;0.90;0.90;;;;;;;4.26;67.41;99972.03;101278;1318;95255;-76
2021/12/20 08:12:38;;;;;;;1.00;1.00;;;;;;;4.32;67.12;99977.25;101130;1318;137871;-77
2021/12/20 08:15:06;;;;;;;0.90;0.90;;;;;;;4.32;67.06;99979.72;101262;1320;108816;-76
2021/12/20 08:17:34;;;;;;;0.80;0.80;;;;;;;4.28;66.84;99984.30;101160;1320;138639;-76
2021/12/20 08:20:04;;;;;;;0.90;0.90;;;;;;;4.18;67.07;99980.52;101295;1322;95615;-76
2021/12/20 08:22:32;;;;;;;0.90;0.90;;;;;;;4.15;67.29;99986.33;101031;1321;137697;-77
2021/12/20 08:25:00;;;;;;;1.00;1.00;;;;;;;4.21;67.65;99989.81;101133;1325;109815;-77
2021/12/20 08:27:28;;;;;;;0.90;0.90;;;;;;;4.30;67.58;99990.45;101296;1318;95634;-76
2021/12/20 08:29:56;;;;;;;0.90;0.90;;;;;;;4.31;67.64;99991.67;101149;1319;138566;-76
2021/12/20 08:32:24;;;;;;;1.00;1.00;;;;;;;4.18;68.01;99991.08;101259;1318;108803;-77
2021/12/20 08:34:53;;;;;;;1.10;1.10;;;;;;;4.06;68.19;99996.23;101002;1320;138493;-77
2021/12/20 08:37:22;;;;;;;1.00;1.00;;;;;;;4.00;68.55;99999.27;101291;1317;95216;-77
2021/12/20 08:39:49;;;;;;;0.90;0.90;;;;;;;4.04;68.66;100000.28;101260;1323;97139;-77
2021/12/20 08:42:17;;;;;;;1.00;1.00;;;;;;;4.06;68.49;100003.45;101288;1318;138266;-77
2021/12/20 08:44:46;;;;;;;1.10;1.10;;;;;;;3.95;68.55;100006.13;101183;1321;110577;-78
2021/12/20 08:47:15;;;;;;;0.90;0.90;;;;;;;3.90;68.73;100010.55;101341;1318;138475;-78
2021/12/20 08:49:43;;;;;;;0.90;0.90;;;;;;;3.74;68.81;100010.27;101203;1321;95776;-78
2021/12/20 08:52:11;;;;;;;1.00;1.00;;;;;;;3.65;68.64;100006.45;101239;1321;107881;-78
2021/12/20 08:54:39;;;;;;;1.20;1.20;;;;;;;3.56;68.78;100010.88;101075;1320;137644;-78
2021/12/20 08:57:08;;;;;;;1.00;1.00;;;;;;;3.51;68.77;100016.52;101193;1317;96543;-78
2021/12/20 08:59:36;;;;;;;1.00;1.00;;;;;;;3.54;68.86;100016.67;101303;1317;138666;-78
2021/12/20 09:02:07;;;;;;;0.90;0.90;;;;;;;3.60;69.10;100016.48;101229;1322;108856;-78
2021/12/20 09:04:35;;;;;;;1.10;1.10;;;;;;;3.61;69.08;100015.95;101073;1319;138706;-77
2021/12/20 09:07:06;;;;;;;1.10;1.10;;;;;;;3.61;68.91;100020.70;101346;1322;95547;-77
2021/12/20 09:09:39;;;;;;;0.90;0.90;;;;;;;3.66;69.12;100022.60;101243;1317;95451;-77
2021/12/20 09:12:08;;;;;;;1.10;1.10;;;;;;;3.68;69.34;100022.07;101118;1321;137944;-78
2021/12/20 09:14:37;;;;;;;1.10;1.10;;;;;;;3.72;69.22;100019.95;101427;1322;108809;-78
2021/12/20 09:17:05;;;;;;;1.00;1.00;;;;;;;3.78;69.24;100016.06;101531;1319;138701;-78
2021/12/20 09:19:36;;;;;;;1.00;1.00;;;;;;;3.84;69.07;100017.25;101114;1321;95164;-78
2021/12/20 09:22:06;;;;;;;1.10;1.10;;;;;;;3.83;69.19;100021.64;101207;1321;107925;-77
2021/12/20 09:24:34;;;;;;;1.10;1.10;;;;;;;3.82;69.15;100041.49;101155;1318;138982;-78
2021/12/20 09:27:03;;;;;;;1.00;1.00;;;;;;;3.73;69.33;100049.79;101211;1319;95784;-77
2021/12/20 09:29:31;;;;;;;1.00;1.00;;;;;;;3.66;69.12;100056.31;101318;1318;138461;-77
2021/12/20 09:31:59;;;;;;;1.00;1.00;;;;;;;3.58;68.75;100058.63;101233;1318;108713;-77
2021/12/20 09:34:27;;;;;;;1.10;1.10;;;;;;;3.51;68.96;100061.64;100875;1322;137896;-79
2021/12/20 09:36:55;;;;;;;1.00;1.00;;;;;;;3.52;68.55;100068.82;101101;1322;95351;-75
2021/12/20 09:39:23;;;;;;;1.10;1.10;;;;;;;3.39;68.03;100068.50;101271;1320;96093;-79
2021/12/20 09:44:23;;;;;;;1.10;1.10;;;;;;;3.17;68.82;100078.55;101357;1318;108815;-77
2021/12/20 09:46:55;;;;;;;1.10;1.10;;;;;;;3.14;69.04;100074.51;101182;1317;138432;-77
2021/12/20 09:49:23;;;;;;;1.00;1.00;;;;;;;3.13;69.18;100074.52;101093;1322;95407;-77
2021/12/20 09:51:52;;;;;;;1.00;1.00;;;;;;;3.11;69.07;100078.02;101141;1320;109728;-78
2021/12/20 09:54:20;;;;;;;1.10;1.10;;;;;;;3.05;69.19;100080.14;101076;1321;137978;-77
2021/12/20 09:56:49;;;;;;;1.00;1.00;;;;;;;3.00;69.02;100086.83;101154;1318;95204;-78
2021/12/20 09:59:18;;;;;;;1.00;1.00;;;;;;;2.97;69.16;100083.13;101246;1318;138754;-77
2021/12/20 10:01:48;;;;;;;1.00;1.00;;;;;;;2.91;69.20;100088.75;101103;1321;108577;-80
2021/12/20 10:04:17;;;;;;;1.20;1.20;;;;;;;2.84;69.27;100094.34;101279;1318;108962;-78
2021/12/20 10:06:50;;;;;;;1.30;1.30;;;;;;;2.72;70.22;100095.21;101378;1321;138035;-79
2021/12/20 10:09:25;;;;;;;1.20;1.20;;;;;;;2.68;70.46;100104.51;101386;1320;95979;-79
2021/12/20 10:12:17;;;;;;;1.10;1.10;;;;;;;2.73;70.69;100106.96;101097;1319;138126;-77
2021/12/20 10:14:51;;;;;;;1.20;1.20;;;;;;;2.77;70.40;100106.09;101353;1319;109834;-77
2021/12/20 10:17:21;;;;;;;1.20;1.20;;;;;;;2.77;69.90;100108.71;101277;1317;138099;-78
2021/12/20 10:19:49;;;;;;;1.20;1.20;;;;;;;2.80;69.53;100108.02;101396;1320;95315;-78
2021/12/20 10:22:35;;;;;;;1.00;1.00;;;;;;;2.84;69.37;100108.55;101226;1319;108220;-78
2021/12/20 10:25:29;;;;;;;1.20;1.20;;;;;;;2.88;69.12;100109.26;101290;1321;137724;-78
2021/12/20 10:28:10;;;;;;;1.20;1.20;;;;;;;3.01;69.10;100105.58;101252;1320;97421;-79
2021/12/20 10:31:00;;;;;;;1.00;1.00;;;;;;;3.14;68.59;100102.05;101182;1320;139103;-78
2021/12/20 10:33:28;;;;;;;1.10;1.10;;;;;;;3.15;68.21;100106.09;101343;1318;106067;-79
2021/12/20 10:35:59;;;;;;;1.00;1.00;;;;;;;3.07;67.87;100109.26;101027;1318;137815;-79
2021/12/20 10:38:41;;;;;;;1.20;1.20;;;;;;;3.05;68.00;100113.64;101344;1318;95958;-78
2021/12/20 10:41:19;;;;;;;1.10;1.10;;;;;;;3.07;67.35;100114.34;101292;1318;138222;-77
2021/12/20 10:43:51;;;;;;;1.10;1.10;;;;;;;3.10;67.56;100114.69;101646;1323;107840;-81
2021/12/20 10:46:32;;;;;;;1.10;1.10;;;;;;;3.13;67.21;100118.02;101887;1320;109770;-79
2021/12/20 10:49:02;;;;;;;1.10;1.10;;;;;;;3.12;67.11;100118.20;101320;1317;138046;-80
2021/12/20 10:51:40;;;;;;;1.30;1.30;;;;;;;3.16;66.94;100121.88;101057;1322;96789;-80
2021/12/20 10:54:13;;;;;;;1.10;1.10;;;;;;;3.23;67.29;100126.95;101424;1317;137789;-79
2021/12/20 10:57:03;;;;;;;1.10;1.10;;;;;;;3.37;67.14;100129.41;101252;1324;109891;-78
2021/12/20 10:59:35;;;;;;;1.00;1.00;;;;;;;3.47;66.52;100129.90;100986;1320;139012;-78
2021/12/20 11:05:00;;;;;;;1.00;1.00;;;;;;;3.61;66.35;100134.45;101051;1318;138203;-79
2021/12/20 11:10:20;;;;;;;1.00;1.00;;;;;;;3.60;66.62;100144.29;101296;1320;95687;-80
2021/12/20 11:12:48;;;;;;;1.00;1.00;;;;;;;3.66;66.06;100138.30;101258;1319;138665;-79
2021/12/20 11:15:16;;;;;;;1.00;1.00;;;;;;;3.62;65.13;100141.83;101229;1320;107854;-78
2021/12/20 11:17:46;;;;;;;1.10;1.10;;;;;;;3.60;63.88;100140.06;101389;1317;138030;-79
2021/12/20 11:20:21;;;;;;;1.10;1.10;;;;;;;3.59;63.68;100147.97;101383;1318;96168;-79
2021/12/20 11:22:49;;;;;;;1.10;1.10;;;;;;;3.50;62.23;100149.04;101795;1318;138852;-80
2021/12/20 11:25:17;;;;;;;1.00;1.00;;;;;;;3.42;61.31;100155.71;101390;1322;108834;-78
2021/12/20 11:27:53;;;;;;;1.10;1.10;;;;;;;3.32;60.31;100150.11;101441;1318;108799;-81
2021/12/20 11:30:26;;;;;;;1.10;1.10;;;;;;;3.09;59.52;100150.29;101484;1317;138431;-79
2021/12/20 11:32:55;;;;;;;1.20;1.20;;;;;;;2.96;59.99;100156.95;101414;1319;95169;-79
2021/12/20 11:35:24;;;;;;;1.30;1.30;;;;;;;2.83;60.13;100160.62;101462;1318;137953;-79
2021/12/20 11:37:54;;;;;;;1.30;1.30;;;;;;;2.71;58.75;100167.09;101418;1317;107005;-81
2021/12/20 11:40:22;;;;;;;1.30;1.30;;;;;;;2.47;59.10;100169.48;101755;1318;95226;-80
2021/12/20 11:42:50;;;;;;;1.30;1.30;;;;;;;2.33;59.19;100173.64;101256;1317;138583;-79
2021/12/20 11:45:19;;;;;;;1.20;1.20;;;;;;;2.32;59.60;100173.98;101384;1318;108109;-79
2021/12/20 11:48:07;;;;;;;1.30;1.30;;;;;;;2.34;59.97;100176.27;101396;1318;138207;-79
2021/12/20 11:50:38;;;;;;;1.20;1.20;;;;;;;2.35;59.83;100181.00;101489;1318;95291;-80
2021/12/20 11:53:07;;;;;;;1.30;1.30;;;;;;;2.34;60.38;100182.75;101266;1321;137742;-80
2021/12/20 11:55:37;;;;;;;1.30;1.30;;;;;;;2.34;60.56;100183.64;101212;1316;108811;-80
2021/12/20 11:58:15;;;;;;;1.30;1.30;;;;;;;2.37;60.77;100186.45;101440;1318;110138;-79
2021/12/20 12:00:54;;;;;;;1.30;1.30;;;;;;;2.32;60.01;100188.52;101413;1319;138432;-79
2021/12/20 12:03:32;;;;;;;1.20;1.20;;;;;;;2.37;60.63;100189.06;101330;1318;95722;-79